Time;durP1;ratioP1;P1;durP2;ratioP2;P2;SDS_P1;SDS_P2;PMS_P1;PMS_P2;Temp;Humidity;BMP_temperature;BMP_pressure;BME280_temperature;BME280_humidity;BME280_pressure;Samples;Min_cycle;Max_cycle;Signal;HPM_P1;HPM_P2
2023/01/24 00:02:02;;;;;;;4.03;2.40;;;;;;;5.88;100.00;95409.94;5053309;28;20189;-59
2023/01/24 00:04:27;;;;;;;3.13;2.50;;;;;;;5.92;100.00;95409.69;5053268;28;20284;-59
2023/01/24 00:06:53;;;;;;;4.37;2.70;;;;;;;5.95;100.00;95416.28;5053470;28;20545;-53
2023/01/24 00:09:18;;;;;;;3.23;2.50;;;;;;;5.93;100.00;95423.13;5067835;28;20346;-53
2023/01/24 00:11:43;;;;;;;4.43;2.83;;;;;;;5.78;100.00;95413.81;5053200;28;20556;-54
2023/01/24 00:14:09;;;;;;;4.87;3.20;;;;;;;5.88;100.00;95420.03;5053071;28;20213;-55
2023/01/24 00:16:34;;;;;;;5.33;2.93;;;;;;;5.82;100.00;95406.00;5053229;28;20693;-54
2023/01/24 00:19:00;;;;;;;3.37;2.73;;;;;;;6.01;100.00;95430.28;5053046;28;20209;-52
2023/01/24 00:21:25;;;;;;;5.77;2.73;;;;;;;5.96;100.00;95424.69;5053033;28;20669;-56
2023/01/24 00:23:53;;;;;;;6.73;3.53;;;;;;;6.03;100.00;95439.41;5053174;28;20614;-52
2023/01/24 00:26:20;;;;;;;5.03;2.73;;;;;;;6.03;100.00;95441.91;5053034;28;20185;-53
2023/01/24 00:28:47;;;;;;;5.13;2.70;;;;;;;6.00;100.00;95449.63;5052919;28;20247;-54
2023/01/24 00:31:13;;;;;;;3.50;2.90;;;;;;;6.10;100.00;95465.91;5052787;28;20189;-54
2023/01/24 00:33:39;;;;;;;5.00;2.97;;;;;;;6.12;100.00;95469.16;5052856;28;20354;-52
2023/01/24 00:36:05;;;;;;;4.50;2.83;;;;;;;6.07;100.00;95453.47;5035082;28;20184;-53
2023/01/24 00:38:31;;;;;;;3.70;2.63;;;;;;;5.91;100.00;95455.19;5052766;28;20238;-56
2023/01/24 00:40:57;;;;;;;5.83;3.20;;;;;;;5.98;100.00;95432.97;5052630;28;20561;-52
2023/01/24 00:43:22;;;;;;;5.53;3.40;;;;;;;5.96;100.00;95457.47;5052638;28;20719;-54
2023/01/24 00:45:48;;;;;;;5.67;3.60;;;;;;;5.87;100.00;95424.28;5051275;28;20216;-55
2023/01/24 00:48:13;;;;;;;4.07;2.73;;;;;;;5.94;100.00;95439.88;5052346;28;20217;-56
2023/01/24 00:50:46;;;;;;;3.73;2.83;;;;;;;5.85;100.00;95418.50;5052389;28;20232;-53
2023/01/24 00:53:19;;;;;;;5.87;3.23;;;;;;;5.93;100.00;95434.03;5052976;28;20274;-59
2023/01/24 00:55:46;;;;;;;4.83;3.17;;;;;;;5.82;100.00;95416.09;5052351;28;20246;-52
2023/01/24 00:58:12;;;;;;;4.27;2.80;;;;;;;5.88;100.00;95432.63;5067735;28;20281;-52
2023/01/24 01:00:38;;;;;;;4.53;3.23;;;;;;;5.87;100.00;95418.41;5052505;28;20196;-53
2023/01/24 01:03:05;;;;;;;5.17;2.97;;;;;;;5.84;100.00;95426.13;5052664;28;20216;-53
2023/01/24 01:05:31;;;;;;;4.27;3.07;;;;;;;5.82;100.00;95430.41;5052410;28;20664;-56
2023/01/24 01:07:57;;;;;;;4.37;2.60;;;;;;;5.74;100.00;95427.50;5052299;28;20227;-52
2023/01/24 01:10:22;;;;;;;7.63;3.30;;;;;;;5.64;100.00;95421.31;5052237;28;20696;-56
2023/01/24 01:12:47;;;;;;;4.20;2.93;;;;;;;5.50;100.00;95428.78;5052091;28;20588;-52
2023/01/24 01:15:13;;;;;;;5.93;3.70;;;;;;;5.51;100.00;95436.31;5052107;28;20632;-52
2023/01/24 01:17:38;;;;;;;5.90;4.03;;;;;;;5.48;100.00;95433.09;5051841;28;20732;-52
2023/01/24 01:20:04;;;;;;;4.27;3.10;;;;;;;5.47;100.00;95428.97;5051316;28;20189;-53
2023/01/24 01:22:30;;;;;;;5.67;3.37;;;;;;;5.61;100.00;95441.66;5050912;28;20213;-52
2023/01/24 01:24:55;;;;;;;6.30;3.03;;;;;;;5.65;100.00;95445.66;5051988;28;20199;-54
2023/01/24 01:27:21;;;;;;;8.37;3.30;;;;;;;5.60;100.00;95450.09;5052052;28;20192;-56
2023/01/24 01:29:47;;;;;;;5.63;3.63;;;;;;;5.64;100.00;95439.78;5051859;28;20598;-56
2023/01/24 01:32:12;;;;;;;5.60;3.67;;;;;;;5.65;100.00;95445.66;5051831;28;20220;-53
2023/01/24 01:34:37;;;;;;;7.07;3.90;;;;;;;5.71;100.00;95465.50;5050648;28;20196;-54
2023/01/24 01:37:03;;;;;;;6.50;3.47;;;;;;;5.66;100.00;95465.75;5051890;28;20188;-54
2023/01/24 01:39:28;;;;;;;5.37;3.53;;;;;;;5.71;100.00;95462.97;5051958;28;20274;-55
2023/01/24 01:41:54;;;;;;;6.40;3.13;;;;;;;5.68;100.00;95469.00;5051912;28;20653;-55
2023/01/24 01:44:47;;;;;;;5.13;3.13;;;;;;;5.72;100.00;95467.13;5051818;28;20204;-55
2023/01/24 01:47:25;;;;;;;6.67;3.63;;;;;;;5.74;100.00;95468.66;5051928;28;20738;-53
2023/01/24 01:49:51;;;;;;;7.27;3.70;;;;;;;5.70;100.00;95441.16;5051744;28;20657;-53
2023/01/24 01:52:18;;;;;;;3.93;2.87;;;;;;;5.68;100.00;95432.88;5051290;28;20233;-53
2023/01/24 01:54:46;;;;;;;6.03;3.50;;;;;;;5.73;100.00;95429.22;5050309;28;20553;-55
2023/01/24 01:57:19;;;;;;;7.33;3.57;;;;;;;5.68;100.00;95427.81;5051284;28;20196;-55
2023/01/24 02:00:08;;;;;;;5.67;3.27;;;;;;;5.62;100.00;95418.06;5051622;28;20195;-53
2023/01/24 02:02:35;;;;;;;6.60;3.53;;;;;;;5.64;100.00;95429.69;5051605;28;20296;-60
2023/01/24 02:05:06;;;;;;;7.67;3.53;;;;;;;5.52;100.00;95437.09;5051417;28;20200;-54
2023/01/24 02:07:38;;;;;;;6.47;3.83;;;;;;;5.47;100.00;95411.31;5051458;28;20213;-52
2023/01/24 02:10:04;;;;;;;6.17;2.87;;;;;;;5.46;100.00;95420.59;5051201;28;20236;-53
2023/01/24 02:12:38;;;;;;;4.93;3.17;;;;;;;5.44;100.00;95398.84;5051288;28;20329;-52
2023/01/24 02:18:00;;;;;;;4.67;3.17;;;;;;;5.49;100.00;95417.91;5051407;28;20285;-53
2023/01/24 02:20:45;;;;;;;5.90;3.03;;;;;;;5.44;100.00;95408.94;5050207;28;20263;-54
2023/01/24 02:23:32;;;;;;;5.77;3.43;;;;;;;5.44;100.00;95411.47;5051307;28;20222;-53
2023/01/24 02:26:21;;;;;;;5.43;2.90;;;;;;;5.43;100.00;95402.28;5049692;28;20194;-60
2023/01/24 02:28:51;;;;;;;4.33;3.07;;;;;;;5.42;100.00;95420.81;5050879;28;20777;-54
2023/01/24 02:31:16;;;;;;;4.13;2.40;;;;;;;5.43;100.00;95417.41;5050932;28;20210;-53
2023/01/24 02:33:42;;;;;;;3.37;2.40;;;;;;;5.28;100.00;95400.56;5050644;28;20658;-52
2023/01/24 02:36:17;;;;;;;5.10;3.30;;;;;;;5.23;100.00;95402.53;5050970;28;20184;-57
2023/01/24 02:38:46;;;;;;;5.17;2.90;;;;;;;5.15;100.00;95387.81;5050782;28;20224;-55
2023/01/24 02:41:13;;;;;;;4.07;2.40;;;;;;;5.10;100.00;95390.56;5049488;28;20185;-57
2023/01/24 02:43:44;;;;;;;5.30;2.93;;;;;;;5.15;100.00;95397.06;5050734;28;20201;-53
2023/01/24 02:46:09;;;;;;;5.53;2.87;;;;;;;5.07;100.00;95390.69;5050905;28;20180;-55
2023/01/24 02:48:35;;;;;;;2.97;2.63;;;;;;;5.13;100.00;95398.84;5050574;28;20211;-53
2023/01/24 02:53:44;;;;;;;4.00;2.50;;;;;;;5.01;100.00;95397.75;5050740;28;20602;-55
2023/01/24 02:58:54;;;;;;;5.60;2.63;;;;;;;5.24;100.00;95411.69;5050816;28;20598;-54
2023/01/24 03:01:21;;;;;;;7.77;4.10;;;;;;;5.27;100.00;95426.69;5050416;28;20196;-55
2023/01/24 03:03:47;;;;;;;3.73;2.30;;;;;;;5.09;100.00;95414.13;5049130;28;20216;-53
2023/01/24 03:06:15;;;;;;;4.33;2.57;;;;;;;5.19;100.00;95411.13;5050485;28;20582;-55
2023/01/24 03:08:41;;;;;;;4.90;3.30;;;;;;;5.02;100.00;95401.91;5050606;28;20236;-53
2023/01/24 03:11:07;;;;;;;3.93;2.40;;;;;;;5.04;100.00;95395.09;5050432;28;20188;-54
2023/01/24 03:35:28;;;;;;;3.67;2.67;;;;;;;4.90;100.00;95378.16;5050522;28;20234;-54
2023/01/24 03:40:38;;;;;;;4.33;2.50;;;;;;;4.97;100.00;95379.47;5050528;28;20724;-53
2023/01/24 03:43:03;;;;;;;3.60;2.67;;;;;;;5.09;100.00;95404.03;5050376;28;20210;-55
2023/01/24 03:45:32;;;;;;;3.87;2.60;;;;;;;5.02;100.00;95405.25;5052098;28;20196;-55
2023/01/24 03:48:09;;;;;;;3.20;2.57;;;;;;;4.93;100.00;95390.59;5053435;28;20273;-55
2023/01/24 03:53:26;;;;;;;2.70;2.30;;;;;;;4.99;100.00;95404.56;5054128;28;20234;-54
2023/01/24 03:55:59;;;;;;;5.07;2.30;;;;;;;4.89;100.00;95401.72;5052465;28;20250;-55
2023/01/24 03:58:27;;;;;;;4.03;2.90;;;;;;;4.97;100.00;95399.63;5068708;28;20221;-55
2023/01/24 04:00:53;;;;;;;2.50;2.23;;;;;;;4.82;100.00;95397.91;5053218;28;20231;-54
2023/01/24 04:03:19;;;;;;;4.47;2.43;;;;;;;4.87;100.00;95402.69;5053204;28;20235;-53
2023/01/24 04:05:48;;;;;;;3.80;2.97;;;;;;;4.92;100.00;95404.09;5053381;28;20324;-56
2023/01/24 04:08:13;;;;;;;3.73;2.87;;;;;;;4.93;100.00;95402.38;5053213;28;20264;-55
2023/01/24 04:10:39;;;;;;;4.63;2.90;;;;;;;4.76;100.00;95380.56;5053148;28;20242;-56
2023/01/24 04:13:05;;;;;;;3.47;2.40;;;;;;;4.81;100.00;95401.28;5053142;28;20220;-55
2023/01/24 04:15:32;;;;;;;4.83;3.03;;;;;;;4.76;100.00;95390.66;5053150;28;20186;-54
2023/01/24 04:18:01;;;;;;;6.10;2.80;;;;;;;4.69;100.00;95370.88;5053369;28;20232;-55
2023/01/24 04:20:29;;;;;;;5.87;2.80;;;;;;;4.76;100.00;95390.66;5052978;28;20185;-54
2023/01/24 04:22:55;;;;;;;4.23;3.03;;;;;;;4.65;100.00;95364.34;5052866;28;20227;-56
2023/01/24 04:25:21;;;;;;;4.87;2.90;;;;;;;4.72;100.00;95376.59;5051746;28;20205;-52
2023/01/24 04:27:47;;;;;;;6.10;3.53;;;;;;;4.81;100.00;95392.91;5052951;28;20219;-55
2023/01/24 04:30:15;;;;;;;3.00;2.30;;;;;;;4.82;100.00;95390.34;5052615;28;20217;-55
2023/01/24 04:32:42;;;;;;;4.80;3.03;;;;;;;4.86;100.00;95356.53;5052717;28;20298;-56
2023/01/24 04:35:09;;;;;;;4.57;2.67;;;;;;;4.77;100.00;95392.25;5052886;28;20659;-53
2023/01/24 04:37:35;;;;;;;6.10;4.47;;;;;;;5.01;100.00;95362.47;5053052;28;20577;-55
2023/01/24 04:40:01;;;;;;;5.63;3.30;;;;;;;4.98;100.00;95416.38;5052892;28;20191;-53
2023/01/24 04:42:26;;;;;;;6.23;3.07;;;;;;;4.94;100.00;95417.44;5053042;28;20756;-53
2023/01/24 04:44:52;;;;;;;3.73;3.03;;;;;;;4.89;100.00;95421.88;5052564;28;20207;-55
2023/01/24 04:47:17;;;;;;;4.47;2.60;;;;;;;4.76;100.00;95415.84;5052822;28;20273;-52
2023/01/24 04:49:42;;;;;;;6.47;3.43;;;;;;;4.73;100.00;95405.91;5052837;28;20303;-59
2023/01/24 04:52:11;;;;;;;4.77;3.47;;;;;;;4.67;100.00;95391.09;5052508;28;20258;-54
2023/01/24 04:54:37;;;;;;;5.07;3.17;;;;;;;4.76;100.00;95420.03;5067843;28;20200;-56
2023/01/24 04:57:03;;;;;;;6.87;3.80;;;;;;;4.71;100.00;95427.00;5050733;28;20250;-55
2023/01/24 04:59:28;;;;;;;7.53;2.80;;;;;;;4.60;100.00;95417.47;5052347;28;20225;-55
2023/01/24 05:01:55;;;;;;;9.00;5.90;;;;;;;4.63;100.00;95413.97;5034370;28;20195;-55
2023/01/24 05:04:20;;;;;;;4.83;3.77;;;;;;;4.64;100.00;95416.44;5052169;28;20216;-56
2023/01/24 05:06:45;;;;;;;5.63;3.87;;;;;;;4.67;100.00;95421.31;5052375;28;20707;-53
2023/01/24 05:09:11;;;;;;;34.13;19.60;;;;;;;4.66;100.00;95407.09;5052217;28;20224;-53
2023/01/24 05:11:36;;;;;;;8.03;4.23;;;;;;;4.76;100.00;95390.66;5051010;28;20194;-52
2023/01/24 05:14:02;;;;;;;8.40;4.37;;;;;;;4.93;100.00;95408.22;5051976;28;20217;-55
2023/01/24 05:16:28;;;;;;;6.23;3.40;;;;;;;4.78;100.00;95420.78;5052134;28;20194;-56
2023/01/24 05:18:53;;;;;;;5.00;2.63;;;;;;;4.73;100.00;95415.97;5050703;28;20240;-54
2023/01/24 05:21:25;;;;;;;3.17;2.37;;;;;;;4.52;100.00;95438.88;5052059;28;20311;-55
2023/01/24 05:23:52;;;;;;;2.27;2.07;;;;;;;4.50;100.00;95438.97;5052146;28;20224;-55
2023/01/24 05:26:19;;;;;;;3.37;2.37;;;;;;;4.60;100.00;95429.25;5052171;28;20183;-56
2023/01/24 05:28:45;;;;;;;2.90;2.27;;;;;;;4.69;100.00;95459.00;5051941;28;20215;-53
2023/01/24 05:31:11;;;;;;;3.63;2.60;;;;;;;4.69;100.00;95472.41;5067447;28;20265;-55
2023/01/24 05:33:36;;;;;;;5.13;3.00;;;;;;;4.56;100.00;95475.59;5051987;28;20302;-55
2023/01/24 05:36:05;;;;;;;5.43;2.47;;;;;;;4.65;100.00;95473.44;5051734;28;20610;-56
2023/01/24 05:38:31;;;;;;;4.17;2.87;;;;;;;4.47;100.00;95459.22;5051794;28;20219;-56
2023/01/24 05:41:02;;;;;;;3.90;2.83;;;;;;;4.64;100.00;95450.88;5051911;28;20185;-54
2023/01/24 05:43:28;;;;;;;4.93;2.70;;;;;;;4.68;100.00;95452.34;5050416;28;20352;-51
2023/01/24 05:46:05;;;;;;;4.53;3.23;;;;;;;4.62;100.00;95452.66;5051814;28;20258;-56
2023/01/24 05:48:31;;;;;;;6.80;2.80;;;;;;;4.56;100.00;95452.94;5051833;28;20208;-57
2023/01/24 05:51:02;;;;;;;6.80;2.70;;;;;;;4.49;100.00;95449.09;5052068;28;20213;-58
2023/01/24 05:53:28;;;;;;;2.93;2.30;;;;;;;4.59;100.00;95478.78;5051915;28;20265;-53
2023/01/24 05:55:58;;;;;;;3.57;2.53;;;;;;;4.63;100.00;95485.28;5051738;28;20221;-53
2023/01/24 05:58:29;;;;;;;4.33;2.70;;;;;;;4.43;100.00;95467.81;5051851;28;20219;-53
2023/01/24 06:00:55;;;;;;;5.17;2.83;;;;;;;4.44;100.00;95473.69;5051506;28;20271;-58
2023/01/24 06:03:21;;;;;;;3.60;2.43;;;;;;;4.39;100.00;95480.63;5051431;28;20752;-55
2023/01/24 06:05:52;;;;;;;7.53;3.20;;;;;;;4.52;100.00;95496.78;5051356;28;20267;-53
2023/01/24 06:08:19;;;;;;;5.73;3.03;;;;;;;4.51;100.00;95505.19;5050313;28;20201;-54
2023/01/24 06:10:44;;;;;;;5.13;3.00;;;;;;;4.49;100.00;95507.81;5051237;28;20641;-56
2023/01/24 06:13:11;;;;;;;5.10;3.30;;;;;;;4.37;100.00;95483.22;5051548;28;20208;-54
2023/01/24 06:15:37;;;;;;;5.87;3.70;;;;;;;4.41;100.00;95489.72;5051397;28;20190;-55
2023/01/24 06:18:03;;;;;;;6.90;4.83;;;;;;;4.42;100.00;95498.94;5051509;28;20262;-57
2023/01/24 06:20:29;;;;;;;7.00;3.93;;;;;;;4.44;100.00;95508.91;5051394;28;20188;-52
2023/01/24 06:23:01;;;;;;;4.57;3.17;;;;;;;4.35;100.00;95504.28;5051121;28;20638;-56
2023/01/24 06:25:27;;;;;;;7.07;2.57;;;;;;;4.21;100.00;95499.91;5051236;28;20203;-56
2023/01/24 06:27:52;;;;;;;4.97;3.03;;;;;;;4.32;100.00;95502.75;5049528;28;20218;-57
2023/01/24 06:30:19;;;;;;;5.70;2.93;;;;;;;4.36;100.00;95503.44;5050882;28;20223;-55
2023/01/24 06:33:02;;;;;;;4.67;2.93;;;;;;;4.21;100.00;95522.56;5051424;28;20217;-56
2023/01/24 06:35:30;;;;;;;6.03;3.27;;;;;;;4.17;100.00;95511.81;5051225;28;20195;-57
2023/01/24 06:37:57;;;;;;;6.43;3.40;;;;;;;4.12;100.00;95498.63;5051272;28;20254;-53
2023/01/24 06:40:24;;;;;;;7.33;3.60;;;;;;;4.21;100.00;95515.84;5050993;28;20212;-52
2023/01/24 06:42:51;;;;;;;4.83;3.13;;;;;;;4.28;100.00;95513.84;5051288;28;20216;-52
2023/01/24 06:45:17;;;;;;;5.43;3.17;;;;;;;4.43;100.00;95558.44;5050830;28;20196;-55
2023/01/24 06:47:43;;;;;;;4.43;2.43;;;;;;;4.39;100.00;95558.63;5050818;28;20213;-55
2023/01/24 06:50:20;;;;;;;5.20;3.03;;;;;;;4.39;100.00;95548.56;5050767;28;20216;-55
2023/01/24 06:52:48;;;;;;;6.43;3.50;;;;;;;4.32;100.00;95532.97;5066363;28;20564;-56
2023/01/24 06:55:13;;;;;;;5.83;3.10;;;;;;;4.42;100.00;95586.19;5050785;28;20198;-57
2023/01/24 06:57:39;;;;;;;3.60;2.70;;;;;;;4.56;100.00;95584.69;5051186;28;20209;-53
2023/01/24 07:00:05;;;;;;;4.73;2.70;;;;;;;4.69;100.00;95594.97;5050656;28;20182;-53
2023/01/24 07:02:31;;;;;;;5.90;3.13;;;;;;;4.48;100.00;95601.84;5050898;28;20218;-54
2023/01/24 07:04:56;;;;;;;4.43;2.80;;;;;;;4.33;100.00;95582.38;5050730;28;20239;-57
2023/01/24 07:07:22;;;;;;;6.30;2.90;;;;;;;4.53;100.00;95579.78;5050905;28;20177;-55
2023/01/24 07:09:47;;;;;;;4.30;3.10;;;;;;;4.46;100.00;95580.97;5050469;28;20292;-54
2023/01/24 07:12:12;;;;;;;6.40;3.67;;;;;;;4.27;100.00;95572.59;5050400;28;20195;-52
2023/01/24 07:14:38;;;;;;;4.00;3.17;;;;;;;4.18;100.00;95558.72;5050512;28;20182;-53
2023/01/24 07:17:04;;;;;;;5.33;3.63;;;;;;;4.01;100.00;95536.06;5050848;28;20243;-55
2023/01/24 07:19:30;;;;;;;3.57;2.57;;;;;;;4.11;100.00;95549.84;5052503;28;20228;-53
2023/01/24 07:21:56;;;;;;;6.67;3.87;;;;;;;4.18;100.00;95538.59;5053969;28;20212;-53
2023/01/24 07:24:25;;;;;;;5.30;3.70;;;;;;;4.20;100.00;95563.72;5053774;28;20601;-56
2023/01/24 07:26:51;;;;;;;5.33;3.20;;;;;;;4.17;100.00;95577.25;5054071;28;20213;-53
2023/01/24 07:29:18;;;;;;;7.40;3.40;;;;;;;4.07;100.00;95550.06;5053803;28;20237;-52
2023/01/24 07:31:43;;;;;;;3.70;2.63;;;;;;;4.15;100.00;95555.56;5053745;28;20193;-52
2023/01/24 07:34:09;;;;;;;5.13;3.20;;;;;;;4.19;100.00;95569.63;5053748;28;20215;-53
2023/01/24 07:36:35;;;;;;;2.63;2.40;;;;;;;4.15;100.00;95580.72;5053959;28;20208;-52
2023/01/24 07:39:00;;;;;;;9.77;2.73;;;;;;;4.17;100.00;95558.81;5053697;28;20233;-56
2023/01/24 07:41:26;;;;;;;4.87;3.00;;;;;;;4.17;100.00;95531.13;5053737;28;20189;-55
2023/01/24 07:43:51;;;;;;;7.27;3.73;;;;;;;4.22;100.00;95546.84;5053779;28;20213;-54
2023/01/24 07:46:16;;;;;;;3.80;2.87;;;;;;;4.20;100.00;95556.16;5053645;28;20198;-52
2023/01/24 07:48:42;;;;;;;4.90;3.10;;;;;;;4.20;100.00;95548.63;5052215;28;20213;-53
2023/01/24 07:51:09;;;;;;;4.77;2.93;;;;;;;4.16;100.00;95554.69;5053371;28;20254;-53
2023/01/24 07:53:35;;;;;;;5.10;3.50;;;;;;;4.14;100.00;95551.41;5053370;28;20289;-53
2023/01/24 07:56:01;;;;;;;4.57;3.40;;;;;;;4.10;100.00;95560.00;5053346;28;20186;-54
2023/01/24 07:58:27;;;;;;;4.60;2.83;;;;;;;3.98;100.00;95563.06;5053397;28;20220;-62
2023/01/24 08:00:53;;;;;;;4.03;2.63;;;;;;;4.06;100.00;95566.03;5053342;28;20186;-56
2023/01/24 08:03:18;;;;;;;4.17;2.73;;;;;;;3.96;100.00;95573.16;5053702;28;20225;-56
2023/01/24 08:05:44;;;;;;;3.03;2.23;;;;;;;3.85;100.00;95582.06;5051932;28;20181;-56
2023/01/24 08:08:11;;;;;;;4.23;2.70;;;;;;;4.04;100.00;95576.16;5053640;28;20205;-55
2023/01/24 08:10:36;;;;;;;4.40;2.70;;;;;;;4.14;100.00;95576.56;5053129;28;20211;-53
2023/01/24 08:13:01;;;;;;;3.10;2.40;;;;;;;4.01;100.00;95578.81;5053304;28;20268;-53
2023/01/24 08:15:27;;;;;;;4.03;2.73;;;;;;;4.17;100.00;95601.59;5053428;28;20182;-53
2023/01/24 08:17:52;;;;;;;3.53;2.43;;;;;;;4.08;100.00;95581.88;5053375;28;20299;-56
2023/01/24 08:20:18;;;;;;;7.00;2.63;;;;;;;4.03;100.00;95571.19;5053250;28;20677;-53
2023/01/24 08:22:43;;;;;;;3.87;1.70;;;;;;;4.13;100.00;95590.03;5053486;28;20213;-53
2023/01/24 08:25:09;;;;;;;3.03;1.90;;;;;;;3.91;100.00;95569.22;5052933;28;20197;-55
2023/01/24 08:27:35;;;;;;;3.57;2.43;;;;;;;4.04;100.00;95577.88;5053294;28;20213;-56
2023/01/24 08:30:03;;;;;;;2.87;2.17;;;;;;;4.15;100.00;95580.72;5052220;28;20209;-53
2023/01/24 08:32:28;;;;;;;5.60;2.53;;;;;;;4.24;100.00;95586.13;5053161;28;20539;-53
2023/01/24 08:34:54;;;;;;;4.13;2.47;;;;;;;4.23;100.00;95586.22;5053157;28;20200;-56
2023/01/24 08:37:19;;;;;;;4.73;2.30;;;;;;;4.23;100.00;95587.03;5052905;28;20198;-57
2023/01/24 08:39:45;;;;;;;3.83;2.87;;;;;;;4.30;100.00;95579.22;5052959;28;20190;-52
2023/01/24 08:42:11;;;;;;;3.47;2.00;;;;;;;4.35;100.00;95594.91;5052729;28;20185;-53
2023/01/24 08:44:36;;;;;;;4.67;2.23;;;;;;;4.33;100.00;95597.50;5052748;28;20183;-53
2023/01/24 08:47:02;;;;;;;4.87;3.03;;;;;;;4.31;100.00;95593.41;5053029;28;20192;-53
2023/01/24 08:49:27;;;;;;;4.20;2.70;;;;;;;4.34;100.00;95579.00;5052494;28;20214;-56
2023/01/24 08:51:58;;;;;;;3.77;2.57;;;;;;;4.47;100.00;95592.66;5052882;28;20193;-57
2023/01/24 08:54:32;;;;;;;3.77;2.40;;;;;;;4.35;100.00;95613.34;5052706;28;20199;-57
2023/01/24 08:56:58;;;;;;;5.20;2.97;;;;;;;4.27;100.00;95602.81;5052924;28;20194;-55
2023/01/24 08:59:24;;;;;;;4.03;2.60;;;;;;;4.30;100.00;95609.41;5051017;28;20230;-52
2023/01/24 09:01:49;;;;;;;4.53;2.93;;;;;;;4.37;100.00;95583.88;5052524;28;20634;-55
2023/01/24 09:04:15;;;;;;;2.80;2.43;;;;;;;4.29;100.00;95590.97;5052171;28;20603;-52
2023/01/24 09:06:40;;;;;;;3.63;2.27;;;;;;;4.31;100.00;95594.22;5052420;28;20198;-52
2023/01/24 09:09:06;;;;;;;4.77;2.83;;;;;;;4.26;100.00;95586.88;5051013;28;20275;-56
2023/01/24 09:11:32;;;;;;;4.50;2.47;;;;;;;4.29;100.00;95590.97;5052434;28;20247;-53
2023/01/24 09:13:57;;;;;;;3.03;2.40;;;;;;;4.40;100.00;95603.06;5052304;28;20209;-57
2023/01/24 09:16:23;;;;;;;3.50;2.30;;;;;;;4.08;100.00;95566.78;5052071;28;20570;-56
2023/01/24 09:18:50;;;;;;;3.63;2.17;;;;;;;4.32;100.00;95610.97;5052268;28;20339;-55
2023/01/24 09:21:17;;;;;;;4.20;2.20;;;;;;;4.40;100.00;95608.94;5052175;28;20272;-55
2023/01/24 09:23:42;;;;;;;3.53;2.50;;;;;;;4.54;100.00;95606.59;5052152;28;20205;-56
2023/01/24 09:26:08;;;;;;;2.63;2.17;;;;;;;4.54;100.00;95595.69;5052049;28;20208;-56
2023/01/24 09:28:33;;;;;;;2.97;2.27;;;;;;;4.58;100.00;95607.25;5052042;28;20307;-55
2023/01/24 09:31:00;;;;;;;2.93;2.57;;;;;;;4.54;100.00;95609.13;5052139;28;20217;-53
2023/01/24 09:33:26;;;;;;;4.37;2.53;;;;;;;4.71;100.00;95609.13;5052020;28;20232;-55
2023/01/24 09:35:53;;;;;;;3.97;2.73;;;;;;;4.84;100.00;95615.25;5051888;28;20620;-55
2023/01/24 09:38:21;;;;;;;4.93;2.37;;;;;;;4.84;100.00;95620.28;5051726;28;20220;-53
2023/01/24 09:40:56;;;;;;;3.43;2.90;;;;;;;4.92;100.00;95604.81;5049602;28;20214;-53
2023/01/24 09:43:45;;;;;;;3.30;2.67;;;;;;;4.76;100.00;95616.47;5048502;28;20702;-54
2023/01/24 09:46:17;;;;;;;4.53;2.90;;;;;;;4.82;100.00;95598.56;5049472;28;20673;-53
2023/01/24 09:48:43;;;;;;;5.30;2.93;;;;;;;4.91;100.00;95600.63;5049920;28;20225;-54
2023/01/24 09:51:24;;;;;;;4.87;2.67;;;;;;;4.78;100.00;95607.97;5051732;28;20216;-54
2023/01/24 09:53:57;;;;;;;3.20;2.30;;;;;;;4.81;100.00;95565.00;5051714;28;20716;-53
2023/01/24 09:56:30;;;;;;;4.50;2.57;;;;;;;4.93;100.00;95601.38;5051504;28;20249;-55
2023/01/24 09:59:10;;;;;;;4.80;3.00;;;;;;;4.94;100.00;95608.06;5043645;22;20237;-55
2023/01/24 10:01:40;;;;;;;2.93;2.20;;;;;;;4.91;100.00;95570.41;5031724;28;20259;-55
2023/01/24 10:04:32;;;;;;;4.67;2.53;;;;;;;4.91;100.00;95629.16;5032058;28;20253;-55
2023/01/24 10:07:27;;;;;;;5.30;2.37;;;;;;;4.77;100.00;95591.22;5031649;28;20651;-56
2023/01/24 10:10:02;;;;;;;4.40;2.23;;;;;;;4.75;100.00;95603.06;5031521;28;20213;-56
2023/01/24 10:13:05;;;;;;;1.80;1.70;;;;;;;4.69;100.00;95564.75;5031447;28;20240;-57
2023/01/24 10:15:48;;;;;;;1.63;1.30;;;;;;;4.62;100.00;95555.88;5020233;28;20198;-58
2023/01/24 10:18:22;;;;;;;2.13;1.60;;;;;;;4.56;100.00;95569.56;5031544;28;20726;-56
2023/01/24 10:21:00;;;;;;;1.20;1.10;;;;;;;4.51;100.00;95558.06;5031443;28;20193;-58
2023/01/24 10:23:48;;;;;;;1.30;1.20;;;;;;;4.45;100.00;95553.31;5031197;28;20715;-57
2023/01/24 10:26:21;;;;;;;3.10;1.60;;;;;;;4.51;100.00;95531.19;5031315;28;20288;-57
2023/01/24 10:28:50;;;;;;;2.03;1.50;;;;;;;4.50;100.00;95534.63;5031601;28;20276;-56
2023/01/24 10:31:30;;;;;;;1.60;1.50;;;;;;;4.35;100.00;95529.47;5031400;28;20196;-57
2023/01/24 10:34:08;;;;;;;2.57;1.67;;;;;;;4.35;100.00;95525.25;5031335;28;20215;-57
2023/01/24 10:36:45;;;;;;;1.40;1.10;;;;;;;4.43;100.00;95535.78;5031207;28;20190;-55
2023/01/24 10:39:12;;;;;;;1.60;1.10;;;;;;;4.36;100.00;95544.53;5031174;28;20220;-58
2023/01/24 10:41:39;;;;;;;1.67;1.47;;;;;;;4.44;100.00;95544.16;5046227;28;20190;-56
2023/01/24 10:44:13;;;;;;;1.07;1.00;;;;;;;4.62;100.00;95528.19;5030865;28;20222;-56
2023/01/24 10:46:59;;;;;;;1.90;1.50;;;;;;;4.66;100.00;95533.00;5031211;28;20274;-57
2023/01/24 10:49:35;;;;;;;1.47;1.00;;;;;;;4.63;100.00;95534.84;5031127;28;20330;-55
2023/01/24 10:52:18;;;;;;;2.10;1.80;;;;;;;4.60;100.00;95538.34;5030954;28;20274;-55
2023/01/24 10:55:20;;;;;;;1.77;1.63;;;;;;;4.68;100.00;95548.84;5036017;28;20691;-56
2023/01/24 10:57:51;;;;;;;2.17;1.37;;;;;;;4.16;100.00;95496.81;5037360;28;20217;-57
2023/01/24 11:00:26;;;;;;;2.93;1.90;;;;;;;4.59;100.00;95536.69;5037491;28;20247;-57
2023/01/24 11:02:56;;;;;;;1.50;1.40;;;;;;;4.57;100.00;95548.53;5037568;28;20220;-56
2023/01/24 11:05:23;;;;;;;1.20;1.10;;;;;;;4.67;100.00;95493.50;5037292;28;20189;-56
2023/01/24 11:07:52;;;;;;;1.43;1.23;;;;;;;4.60;100.00;95566.03;5052487;28;20211;-56
2023/01/24 11:10:24;;;;;;;0.73;0.73;;;;;;;4.58;100.00;95545.16;5037282;28;20669;-54
2023/01/24 11:12:58;;;;;;;10.60;1.53;;;;;;;4.41;100.00;95544.28;5037531;28;20216;-56
2023/01/24 11:15:30;;;;;;;1.87;1.40;;;;;;;4.19;100.00;95531.88;5037332;28;20556;-55
2023/01/24 11:18:06;;;;;;;1.23;1.10;;;;;;;4.33;100.00;95532.06;5037393;28;20205;-55
2023/01/24 11:20:33;;;;;;;1.63;1.30;;;;;;;4.31;100.00;95536.34;5037296;28;20266;-53
2023/01/24 11:23:05;;;;;;;2.83;1.53;;;;;;;4.40;100.00;95528.38;5037164;28;20320;-52
2023/01/24 11:25:30;;;;;;;1.67;1.33;;;;;;;4.28;100.00;95528.97;5037264;28;20265;-53
2023/01/24 11:27:56;;;;;;;1.30;1.20;;;;;;;4.23;100.00;95514.06;5037082;28;20737;-55
2023/01/24 11:30:22;;;;;;;2.77;1.27;;;;;;;4.29;100.00;95543.16;5037213;28;20586;-54
2023/01/24 11:33:06;;;;;;;1.53;1.10;;;;;;;4.19;100.00;95534.41;5037233;28;20238;-56
2023/01/24 11:35:50;;;;;;;3.53;1.00;;;;;;;4.18;100.00;95515.16;5037206;28;20548;-56
2023/01/24 11:38:49;;;;;;;2.13;1.40;;;;;;;4.15;100.00;95522.84;5037710;28;20210;-53
2023/01/24 11:41:24;;;;;;;3.47;1.57;;;;;;;4.05;100.00;95502.34;5025268;28;20203;-55
2023/01/24 11:44:05;;;;;;;1.77;1.20;;;;;;;4.24;100.00;95507.34;5037122;28;20202;-53
2023/01/24 11:46:55;;;;;;;2.97;1.73;;;;;;;4.32;100.00;95504.47;5036861;28;20189;-56
2023/01/24 11:49:46;;;;;;;2.37;1.60;;;;;;;4.35;100.00;95482.47;5036917;28;20214;-53
2023/01/24 11:52:49;;;;;;;1.70;1.17;;;;;;;4.55;100.00;95515.06;5036230;28;20240;-56
2023/01/24 11:55:23;;;;;;;2.87;1.90;;;;;;;4.61;100.00;95517.28;5036442;28;20303;-53
2023/01/24 11:58:15;;;;;;;1.40;1.30;;;;;;;4.63;100.00;95492.03;5037007;28;20234;-54
2023/01/24 12:01:10;;;;;;;2.70;2.10;;;;;;;4.57;100.00;95510.78;5036711;28;20688;-54
2023/01/24 12:03:35;;;;;;;2.57;1.50;;;;;;;4.55;100.00;95517.56;5036504;28;20205;-54
2023/01/24 12:06:42;;;;;;;1.30;1.20;;;;;;;4.53;100.00;95539.50;5033563;28;20195;-53
2023/01/24 12:09:19;;;;;;;3.67;1.20;;;;;;;4.49;100.00;95535.50;5024863;28;20226;-54
2023/01/24 12:12:03;;;;;;;2.20;1.43;;;;;;;4.57;100.00;95551.06;5033458;28;20196;-55
2023/01/24 12:14:55;;;;;;;1.53;1.33;;;;;;;4.64;100.00;95544.84;5033341;28;20770;-56
2023/01/24 12:17:42;;;;;;;2.30;1.57;;;;;;;4.59;100.00;95534.16;5033352;28;20197;-53
2023/01/24 12:20:24;;;;;;;4.10;1.70;;;;;;;4.71;100.00;95550.38;5033346;28;20651;-58
2023/01/24 12:22:53;;;;;;;2.57;1.90;;;;;;;4.55;100.00;95526.81;5033358;28;20672;-57